sensor_id;sensor_type;location;lat;lon;timestamp;temperature;humidity
45409;DHT22;31162;51.076;3.784;2023-03-01T00:00:54;2.00;99.90
45409;DHT22;31162;51.076;3.784;2023-03-01T00:03:20;2.00;99.90
45409;DHT22;31162;51.076;3.784;2023-03-01T00:05:46;2.00;99.90
45409;DHT22;31162;51.076;3.784;2023-03-01T00:08:12;1.90;99.90
45409;DHT22;31162;51.076;3.784;2023-03-01T00:10:38;2.00;99.90
45409;DHT22;31162;51.076;3.784;2023-03-01T00:13:04;2.10;99.90
45409;DHT22;31162;51.076;3.784;2023-03-01T00:15:32;2.10;99.90
45409;DHT22;31162;51.076;3.784;2023-03-01T00:17:58;2.00;99.90
45409;DHT22;31162;51.076;3.784;2023-03-01T00:20:24;2.00;99.90
45409;DHT22;31162;51.076;3.784;2023-03-01T00:22:49;1.90;99.90
45409;DHT22;31162;51.076;3.784;2023-03-01T00:25:15;1.80;99.90
45409;DHT22;31162;51.076;3.784;2023-03-01T00:27:41;1.80;99.90
45409;DHT22;31162;51.076;3.784;2023-03-01T00:30:07;1.80;99.90
45409;DHT22;31162;51.076;3.784;2023-03-01T00:32:33;1.70;99.90
45409;DHT22;31162;51.076;3.784;2023-03-01T00:34:59;1.70;99.90
45409;DHT22;31162;51.076;3.784;2023-03-01T00:37:24;1.70;99.90
45409;DHT22;31162;51.076;3.784;2023-03-01T00:39:50;1.80;99.90
45409;DHT22;31162;51.076;3.784;2023-03-01T00:42:16;1.80;99.90
45409;DHT22;31162;51.076;3.784;2023-03-01T00:44:42;1.80;99.90
45409;DHT22;31162;51.076;3.784;2023-03-01T00:47:08;1.90;99.90
45409;DHT22;31162;51.076;3.784;2023-03-01T00:49:34;1.90;99.90
45409;DHT22;31162;51.076;3.784;2023-03-01T00:52:00;1.80;99.90
45409;DHT22;31162;51.076;3.784;2023-03-01T00:54:25;1.80;99.90
45409;DHT22;31162;51.076;3.784;2023-03-01T00:56:51;1.70;99.90
45409;DHT22;31162;51.076;3.784;2023-03-01T00:59:17;1.70;99.90
45409;DHT22;31162;51.076;3.784;2023-03-01T01:01:42;1.70;99.90
45409;DHT22;31162;51.076;3.784;2023-03-01T01:04:10;1.70;99.90
45409;DHT22;31162;51.076;3.784;2023-03-01T01:06:46;1.80;99.90
45409;DHT22;31162;51.076;3.784;2023-03-01T01:09:14;1.60;99.90
45409;DHT22;31162;51.076;3.784;2023-03-01T01:11:47;1.70;99.90
45409;DHT22;31162;51.076;3.784;2023-03-01T01:14:14;1.60;99.90
45409;DHT22;31162;51.076;3.784;2023-03-01T01:16:39;1.60;99.90
45409;DHT22;31162;51.076;3.784;2023-03-01T01:19:06;1.60;99.90
45409;DHT22;31162;51.076;3.784;2023-03-01T01:21:32;1.70;99.90
45409;DHT22;31162;51.076;3.784;2023-03-01T01:23:58;1.70;99.90
45409;DHT22;31162;51.076;3.784;2023-03-01T01:26:29;1.60;99.90
45409;DHT22;31162;51.076;3.784;2023-03-01T01:28:55;1.60;99.90
45409;DHT22;31162;51.076;3.784;2023-03-01T01:31:22;1.50;99.90
45409;DHT22;31162;51.076;3.784;2023-03-01T01:33:49;1.40;99.90
45409;DHT22;31162;51.076;3.784;2023-03-01T01:36:15;1.40;99.90
45409;DHT22;31162;51.076;3.784;2023-03-01T01:38:41;1.40;99.90
45409;DHT22;31162;51.076;3.784;2023-03-01T01:41:08;1.40;99.90
45409;DHT22;31162;51.076;3.784;2023-03-01T01:43:39;1.40;99.90
45409;DHT22;31162;51.076;3.784;2023-03-01T01:51:28;1.40;99.90
45409;DHT22;31162;51.076;3.784;2023-03-01T01:54:07;1.40;99.90
45409;DHT22;31162;51.076;3.784;2023-03-01T01:56:34;1.40;99.90
45409;DHT22;31162;51.076;3.784;2023-03-01T01:59:02;1.40;99.90
45409;DHT22;31162;51.076;3.784;2023-03-01T02:01:28;1.50;99.90
45409;DHT22;31162;51.076;3.784;2023-03-01T02:03:54;1.40;99.90
45409;DHT22;31162;51.076;3.784;2023-03-01T02:06:38;1.30;99.90
45409;DHT22;31162;51.076;3.784;2023-03-01T02:09:09;1.30;99.90
45409;DHT22;31162;51.076;3.784;2023-03-01T02:11:36;1.30;99.90
45409;DHT22;31162;51.076;3.784;2023-03-01T02:14:03;1.30;99.90
45409;DHT22;31162;51.076;3.784;2023-03-01T02:16:29;1.40;99.90
45409;DHT22;31162;51.076;3.784;2023-03-01T02:18:56;1.30;99.90
45409;DHT22;31162;51.076;3.784;2023-03-01T02:21:46;1.20;99.90
45409;DHT22;31162;51.076;3.784;2023-03-01T02:27:07;1.20;99.90
45409;DHT22;31162;51.076;3.784;2023-03-01T02:29:34;1.10;99.90
45409;DHT22;31162;51.076;3.784;2023-03-01T02:32:02;1.00;99.90
45409;DHT22;31162;51.076;3.784;2023-03-01T02:34:30;1.00;99.90
45409;DHT22;31162;51.076;3.784;2023-03-01T02:37:00;1.10;99.90
45409;DHT22;31162;51.076;3.784;2023-03-01T02:39:32;1.00;99.90
45409;DHT22;31162;51.076;3.784;2023-03-01T02:41:59;1.10;99.90
45409;DHT22;31162;51.076;3.784;2023-03-01T02:44:26;1.00;99.90
45409;DHT22;31162;51.076;3.784;2023-03-01T02:46:55;1.10;99.90
45409;DHT22;31162;51.076;3.784;2023-03-01T02:49:30;1.10;99.90
45409;DHT22;31162;51.076;3.784;2023-03-01T02:52:27;1.10;99.90
45409;DHT22;31162;51.076;3.784;2023-03-01T02:55:06;1.00;99.90
45409;DHT22;31162;51.076;3.784;2023-03-01T02:57:34;1.10;99.90
45409;DHT22;31162;51.076;3.784;2023-03-01T03:00:13;1.00;99.90
45409;DHT22;31162;51.076;3.784;2023-03-01T03:02:46;1.00;99.90
45409;DHT22;31162;51.076;3.784;2023-03-01T03:05:16;1.00;99.90
45409;DHT22;31162;51.076;3.784;2023-03-01T03:07:46;1.00;99.90
45409;DHT22;31162;51.076;3.784;2023-03-01T03:10:19;1.00;99.90
45409;DHT22;31162;51.076;3.784;2023-03-01T03:12:53;0.90;99.90
45409;DHT22;31162;51.076;3.784;2023-03-01T03:15:20;1.00;99.90
45409;DHT22;31162;51.076;3.784;2023-03-01T03:17:46;0.90;99.90
45409;DHT22;31162;51.076;3.784;2023-03-01T03:20:15;0.90;99.90
45409;DHT22;31162;51.076;3.784;2023-03-01T03:22:45;0.90;99.90
45409;DHT22;31162;51.076;3.784;2023-03-01T03:25:10;0.90;99.90
45409;DHT22;31162;51.076;3.784;2023-03-01T03:27:41;0.80;99.90
45409;DHT22;31162;51.076;3.784;2023-03-01T03:30:09;0.90;99.90
45409;DHT22;31162;51.076;3.784;2023-03-01T03:32:38;0.80;99.90
45409;DHT22;31162;51.076;3.784;2023-03-01T03:35:05;0.80;99.90
45409;DHT22;31162;51.076;3.784;2023-03-01T03:37:37;0.80;99.90
45409;DHT22;31162;51.076;3.784;2023-03-01T03:40:21;0.90;99.90
45409;DHT22;31162;51.076;3.784;2023-03-01T03:42:47;0.90;99.90
45409;DHT22;31162;51.076;3.784;2023-03-01T03:45:13;0.90;99.90
45409;DHT22;31162;51.076;3.784;2023-03-01T03:47:39;0.80;99.90
45409;DHT22;31162;51.076;3.784;2023-03-01T03:50:05;0.80;99.90
45409;DHT22;31162;51.076;3.784;2023-03-01T03:52:31;0.80;99.90
45409;DHT22;31162;51.076;3.784;2023-03-01T03:54:56;0.90;99.90
45409;DHT22;31162;51.076;3.784;2023-03-01T03:57:22;0.90;99.90
45409;DHT22;31162;51.076;3.784;2023-03-01T03:59:47;0.80;99.90
45409;DHT22;31162;51.076;3.784;2023-03-01T04:02:13;0.90;99.90
45409;DHT22;31162;51.076;3.784;2023-03-01T04:04:50;0.90;99.90
45409;DHT22;31162;51.076;3.784;2023-03-01T04:07:16;0.80;99.90
45409;DHT22;31162;51.076;3.784;2023-03-01T04:09:43;0.80;99.90
45409;DHT22;31162;51.076;3.784;2023-03-01T04:12:09;0.90;99.90
45409;DHT22;31162;51.076;3.784;2023-03-01T04:14:36;0.90;99.90
45409;DHT22;31162;51.076;3.784;2023-03-01T04:17:02;0.80;99.90
45409;DHT22;31162;51.076;3.784;2023-03-01T04:19:31;0.70;99.90
45409;DHT22;31162;51.076;3.784;2023-03-01T04:22:02;0.70;99.90
45409;DHT22;31162;51.076;3.784;2023-03-01T04:24:33;0.70;99.90
45409;DHT22;31162;51.076;3.784;2023-03-01T04:26:59;0.80;99.90
45409;DHT22;31162;51.076;3.784;2023-03-01T04:29:24;0.80;99.90
45409;DHT22;31162;51.076;3.784;2023-03-01T04:31:50;0.70;99.90
45409;DHT22;31162;51.076;3.784;2023-03-01T04:34:15;0.70;99.90
45409;DHT22;31162;51.076;3.784;2023-03-01T04:36:41;0.70;99.90
45409;DHT22;31162;51.076;3.784;2023-03-01T04:39:07;0.70;99.90
45409;DHT22;31162;51.076;3.784;2023-03-01T04:41:38;0.80;99.90
45409;DHT22;31162;51.076;3.784;2023-03-01T04:44:09;0.80;99.90
45409;DHT22;31162;51.076;3.784;2023-03-01T04:46:35;0.70;99.90
45409;DHT22;31162;51.076;3.784;2023-03-01T04:49:01;0.70;99.90
45409;DHT22;31162;51.076;3.784;2023-03-01T04:51:27;0.70;99.90
45409;DHT22;31162;51.076;3.784;2023-03-01T04:53:52;0.60;99.90
45409;DHT22;31162;51.076;3.784;2023-03-01T04:56:18;0.70;99.90
45409;DHT22;31162;51.076;3.784;2023-03-01T04:58:45;0.60;99.90
45409;DHT22;31162;51.076;3.784;2023-03-01T05:01:12;0.70;99.90
45409;DHT22;31162;51.076;3.784;2023-03-01T05:03:48;0.70;99.90
45409;DHT22;31162;51.076;3.784;2023-03-01T05:06:15;0.60;99.90
45409;DHT22;31162;51.076;3.784;2023-03-01T05:08:41;0.60;99.90
45409;DHT22;31162;51.076;3.784;2023-03-01T05:11:07;0.60;99.90
45409;DHT22;31162;51.076;3.784;2023-03-01T05:13:35;0.60;99.90
45409;DHT22;31162;51.076;3.784;2023-03-01T05:16:02;0.50;99.90
45409;DHT22;31162;51.076;3.784;2023-03-01T05:18:30;0.50;99.90
45409;DHT22;31162;51.076;3.784;2023-03-01T05:21:06;0.40;99.90
45409;DHT22;31162;51.076;3.784;2023-03-01T05:23:32;0.30;99.90
45409;DHT22;31162;51.076;3.784;2023-03-01T05:25:59;0.50;99.90
45409;DHT22;31162;51.076;3.784;2023-03-01T05:28:26;0.40;99.90
45409;DHT22;31162;51.076;3.784;2023-03-01T05:30:53;0.40;99.90
45409;DHT22;31162;51.076;3.784;2023-03-01T05:33:19;0.40;99.90
45409;DHT22;31162;51.076;3.784;2023-03-01T05:35:47;0.40;99.90
45409;DHT22;31162;51.076;3.784;2023-03-01T05:38:15;0.40;99.90
45409;DHT22;31162;51.076;3.784;2023-03-01T05:40:42;0.30;99.90
45409;DHT22;31162;51.076;3.784;2023-03-01T05:43:09;0.40;99.90
45409;DHT22;31162;51.076;3.784;2023-03-01T05:45:36;0.40;99.90
45409;DHT22;31162;51.076;3.784;2023-03-01T05:48:03;0.50;99.90
45409;DHT22;31162;51.076;3.784;2023-03-01T05:50:32;0.40;99.90
45409;DHT22;31162;51.076;3.784;2023-03-01T05:53:02;0.40;99.90
45409;DHT22;31162;51.076;3.784;2023-03-01T05:55:29;0.30;99.90
45409;DHT22;31162;51.076;3.784;2023-03-01T05:58:02;0.40;99.90
45409;DHT22;31162;51.076;3.784;2023-03-01T06:00:29;0.30;99.90
45409;DHT22;31162;51.076;3.784;2023-03-01T06:02:56;0.30;99.90
45409;DHT22;31162;51.076;3.784;2023-03-01T06:05:22;0.40;99.90
45409;DHT22;31162;51.076;3.784;2023-03-01T06:07:48;0.30;99.90
45409;DHT22;31162;51.076;3.784;2023-03-01T06:10:16;0.30;99.90
45409;DHT22;31162;51.076;3.784;2023-03-01T06:12:42;0.40;99.90
45409;DHT22;31162;51.076;3.784;2023-03-01T06:15:10;0.40;99.90
45409;DHT22;31162;51.076;3.784;2023-03-01T06:17:38;0.40;99.90
45409;DHT22;31162;51.076;3.784;2023-03-01T06:20:06;0.40;99.90
45409;DHT22;31162;51.076;3.784;2023-03-01T06:22:32;0.50;99.90
45409;DHT22;31162;51.076;3.784;2023-03-01T06:24:58;0.50;99.90
45409;DHT22;31162;51.076;3.784;2023-03-01T06:27:23;0.60;99.90
45409;DHT22;31162;51.076;3.784;2023-03-01T06:29:49;0.40;99.90
45409;DHT22;31162;51.076;3.784;2023-03-01T06:32:15;0.50;99.90
45409;DHT22;31162;51.076;3.784;2023-03-01T06:34:40;0.40;99.90
45409;DHT22;31162;51.076;3.784;2023-03-01T06:37:07;0.30;99.90
45409;DHT22;31162;51.076;3.784;2023-03-01T06:39:32;0.30;99.90
45409;DHT22;31162;51.076;3.784;2023-03-01T06:41:59;0.30;99.90
45409;DHT22;31162;51.076;3.784;2023-03-01T06:44:25;0.40;99.90
45409;DHT22;31162;51.076;3.784;2023-03-01T06:46:50;0.50;99.90
45409;DHT22;31162;51.076;3.784;2023-03-01T06:49:16;0.50;99.90
45409;DHT22;31162;51.076;3.784;2023-03-01T06:51:44;0.60;99.90
45409;DHT22;31162;51.076;3.784;2023-03-01T06:54:10;0.70;99.90
45409;DHT22;31162;51.076;3.784;2023-03-01T06:56:36;1.00;99.90
45409;DHT22;31162;51.076;3.784;2023-03-01T06:59:02;1.50;99.90
45409;DHT22;31162;51.076;3.784;2023-03-01T07:01:28;2.20;99.90
45409;DHT22;31162;51.076;3.784;2023-03-01T07:03:54;2.60;99.90
45409;DHT22;31162;51.076;3.784;2023-03-01T07:06:21;2.70;99.90
45409;DHT22;31162;51.076;3.784;2023-03-01T07:08:47;2.80;99.90
45409;DHT22;31162;51.076;3.784;2023-03-01T07:11:12;2.70;99.90
45409;DHT22;31162;51.076;3.784;2023-03-01T07:13:38;3.00;99.90
45409;DHT22;31162;51.076;3.784;2023-03-01T07:16:04;3.20;99.90
45409;DHT22;31162;51.076;3.784;2023-03-01T07:18:30;3.30;99.90
45409;DHT22;31162;51.076;3.784;2023-03-01T07:20:55;3.50;99.90
45409;DHT22;31162;51.076;3.784;2023-03-01T07:23:21;3.80;99.90
45409;DHT22;31162;51.076;3.784;2023-03-01T07:25:54;3.80;99.90
45409;DHT22;31162;51.076;3.784;2023-03-01T07:28:22;3.90;99.90
45409;DHT22;31162;51.076;3.784;2023-03-01T07:30:47;4.10;99.90
45409;DHT22;31162;51.076;3.784;2023-03-01T07:33:13;4.40;99.90
45409;DHT22;31162;51.076;3.784;2023-03-01T07:35:38;4.90;99.90
45409;DHT22;31162;51.076;3.784;2023-03-01T07:38:04;5.90;99.90
45409;DHT22;31162;51.076;3.784;2023-03-01T07:40:30;7.00;99.90
45409;DHT22;31162;51.076;3.784;2023-03-01T07:42:57;7.60;99.90
45409;DHT22;31162;51.076;3.784;2023-03-01T07:45:23;8.70;99.90
45409;DHT22;31162;51.076;3.784;2023-03-01T07:47:51;10.00;99.90
45409;DHT22;31162;51.076;3.784;2023-03-01T07:50:18;10.90;99.90
45409;DHT22;31162;51.076;3.784;2023-03-01T07:52:47;11.30;99.90
45409;DHT22;31162;51.076;3.784;2023-03-01T07:55:13;11.00;99.90
45409;DHT22;31162;51.076;3.784;2023-03-01T07:57:39;10.80;99.90
45409;DHT22;31162;51.076;3.784;2023-03-01T08:00:05;11.00;99.90
45409;DHT22;31162;51.076;3.784;2023-03-01T08:02:31;11.60;99.90
45409;DHT22;31162;51.076;3.784;2023-03-01T08:04:57;11.90;99.50
45409;DHT22;31162;51.076;3.784;2023-03-01T08:07:23;12.30;99.00
45409;DHT22;31162;51.076;3.784;2023-03-01T08:09:48;12.70;98.20
45409;DHT22;31162;51.076;3.784;2023-03-01T08:12:14;13.40;96.70
45409;DHT22;31162;51.076;3.784;2023-03-01T08:14:41;13.40;95.80
45409;DHT22;31162;51.076;3.784;2023-03-01T08:17:07;13.20;95.90
45409;DHT22;31162;51.076;3.784;2023-03-01T08:19:33;13.20;95.50
45409;DHT22;31162;51.076;3.784;2023-03-01T08:22:03;13.20;95.40
45409;DHT22;31162;51.076;3.784;2023-03-01T08:24:28;12.80;95.00
45409;DHT22;31162;51.076;3.784;2023-03-01T08:26:54;12.40;95.50
45409;DHT22;31162;51.076;3.784;2023-03-01T08:29:20;12.50;95.30
45409;DHT22;31162;51.076;3.784;2023-03-01T08:31:47;12.70;95.20
45409;DHT22;31162;51.076;3.784;2023-03-01T08:34:15;13.20;94.90
45409;DHT22;31162;51.076;3.784;2023-03-01T08:36:43;13.30;94.30
45409;DHT22;31162;51.076;3.784;2023-03-01T08:39:10;14.00;94.20
45409;DHT22;31162;51.076;3.784;2023-03-01T08:41:36;14.30;93.30
45409;DHT22;31162;51.076;3.784;2023-03-01T08:44:03;14.10;93.00
45409;DHT22;31162;51.076;3.784;2023-03-01T08:46:37;14.10;92.80
45409;DHT22;31162;51.076;3.784;2023-03-01T08:49:14;14.40;92.60
45409;DHT22;31162;51.076;3.784;2023-03-01T08:51:40;14.60;92.00
45409;DHT22;31162;51.076;3.784;2023-03-01T08:54:11;14.00;92.00
45409;DHT22;31162;51.076;3.784;2023-03-01T08:56:37;13.70;91.70
45409;DHT22;31162;51.076;3.784;2023-03-01T08:59:03;13.20;92.10
45409;DHT22;31162;51.076;3.784;2023-03-01T09:01:29;12.50;92.40
45409;DHT22;31162;51.076;3.784;2023-03-01T09:03:54;12.60;93.50
45409;DHT22;31162;51.076;3.784;2023-03-01T09:06:20;13.40;92.20
45409;DHT22;31162;51.076;3.784;2023-03-01T09:08:47;13.50;91.80
45409;DHT22;31162;51.076;3.784;2023-03-01T09:11:15;13.30;92.10
45409;DHT22;31162;51.076;3.784;2023-03-01T09:13:42;13.20;91.70
45409;DHT22;31162;51.076;3.784;2023-03-01T09:16:08;13.00;91.90
45409;DHT22;31162;51.076;3.784;2023-03-01T09:18:35;12.90;92.00
45409;DHT22;31162;51.076;3.784;2023-03-01T09:21:09;12.80;91.90
45409;DHT22;31162;51.076;3.784;2023-03-01T09:23:36;13.30;92.30
45409;DHT22;31162;51.076;3.784;2023-03-01T09:26:07;13.40;91.60
45409;DHT22;31162;51.076;3.784;2023-03-01T09:28:37;13.80;91.50
45409;DHT22;31162;51.076;3.784;2023-03-01T09:31:04;14.00;90.80
45409;DHT22;31162;51.076;3.784;2023-03-01T09:33:31;14.20;90.80
45409;DHT22;31162;51.076;3.784;2023-03-01T09:36:08;14.60;90.90
45409;DHT22;31162;51.076;3.784;2023-03-01T09:38:35;15.10;90.20
45409;DHT22;31162;51.076;3.784;2023-03-01T09:41:01;15.30;90.10
45409;DHT22;31162;51.076;3.784;2023-03-01T09:46:21;14.90;89.20
45409;DHT22;31162;51.076;3.784;2023-03-01T09:48:51;15.50;88.40
45409;DHT22;31162;51.076;3.784;2023-03-01T09:51:26;15.60;87.10
45409;DHT22;31162;51.076;3.784;2023-03-01T09:53:52;14.50;87.70
45409;DHT22;31162;51.076;3.784;2023-03-01T09:56:41;14.50;87.90
45409;DHT22;31162;51.076;3.784;2023-03-01T09:59:25;14.50;87.80
45409;DHT22;31162;51.076;3.784;2023-03-01T10:02:24;14.70;87.00
45409;DHT22;31162;51.076;3.784;2023-03-01T10:04:51;14.50;87.10
45409;DHT22;31162;51.076;3.784;2023-03-01T10:10:37;14.20;86.80
45409;DHT22;31162;51.076;3.784;2023-03-01T10:13:23;14.10;87.10
45409;DHT22;31162;51.076;3.784;2023-03-01T10:16:16;13.80;87.30
45409;DHT22;31162;51.076;3.784;2023-03-01T10:18:46;14.00;85.70
45409;DHT22;31162;51.076;3.784;2023-03-01T10:21:18;14.10;85.00
45409;DHT22;31162;51.076;3.784;2023-03-01T10:23:46;13.80;85.50
45409;DHT22;31162;51.076;3.784;2023-03-01T10:29:03;13.50;85.00
45409;DHT22;31162;51.076;3.784;2023-03-01T10:31:50;13.20;85.50
45409;DHT22;31162;51.076;3.784;2023-03-01T10:36:51;13.00;86.30
45409;DHT22;31162;51.076;3.784;2023-03-01T10:39:20;13.30;86.70
45409;DHT22;31162;51.076;3.784;2023-03-01T10:42:02;13.80;86.50
45409;DHT22;31162;51.076;3.784;2023-03-01T10:44:36;14.10;84.80
45409;DHT22;31162;51.076;3.784;2023-03-01T10:47:02;14.30;84.90
45409;DHT22;31162;51.076;3.784;2023-03-01T10:49:28;14.30;83.20
45409;DHT22;31162;51.076;3.784;2023-03-01T10:51:54;13.80;83.90
45409;DHT22;31162;51.076;3.784;2023-03-01T10:54:28;13.50;84.10
45409;DHT22;31162;51.076;3.784;2023-03-01T10:56:56;13.80;85.40
45409;DHT22;31162;51.076;3.784;2023-03-01T11:04:33;13.60;83.20
45409;DHT22;31162;51.076;3.784;2023-03-01T11:07:00;13.30;83.00
45409;DHT22;31162;51.076;3.784;2023-03-01T11:09:31;13.20;83.80
45409;DHT22;31162;51.076;3.784;2023-03-01T11:12:04;12.40;84.40
45409;DHT22;31162;51.076;3.784;2023-03-01T11:14:37;12.60;85.50
45409;DHT22;31162;51.076;3.784;2023-03-01T11:20:32;13.40;84.50
45409;DHT22;31162;51.076;3.784;2023-03-01T11:23:07;13.10;84.00
45409;DHT22;31162;51.076;3.784;2023-03-01T11:25:42;13.10;84.40
45409;DHT22;31162;51.076;3.784;2023-03-01T11:28:14;11.90;85.60
45409;DHT22;31162;51.076;3.784;2023-03-01T11:33:50;12.60;85.10
45409;DHT22;31162;51.076;3.784;2023-03-01T11:36:39;12.70;85.90
45409;DHT22;31162;51.076;3.784;2023-03-01T11:44:59;13.30;83.40
45409;DHT22;31162;51.076;3.784;2023-03-01T12:07:10;12.90;82.60
45409;DHT22;31162;51.076;3.784;2023-03-01T12:23:59;12.00;84.50
45409;DHT22;31162;51.076;3.784;2023-03-01T12:26:38;12.10;83.30
45409;DHT22;31162;51.076;3.784;2023-03-01T12:50:54;9.00;90.50
45409;DHT22;31162;51.076;3.784;2023-03-01T12:53:27;9.00;91.40
45409;DHT22;31162;51.076;3.784;2023-03-01T12:55:56;8.90;90.40
45409;DHT22;31162;51.076;3.784;2023-03-01T12:58:28;8.90;90.50
45409;DHT22;31162;51.076;3.784;2023-03-01T13:07:16;8.60;90.80
45409;DHT22;31162;51.076;3.784;2023-03-01T13:12:49;8.70;91.20
45409;DHT22;31162;51.076;3.784;2023-03-01T13:15:35;8.60;91.00
45409;DHT22;31162;51.076;3.784;2023-03-01T13:18:04;8.50;90.80
45409;DHT22;31162;51.076;3.784;2023-03-01T13:21:09;8.50;91.20
45409;DHT22;31162;51.076;3.784;2023-03-01T13:23:37;8.50;91.20
45409;DHT22;31162;51.076;3.784;2023-03-01T13:26:05;8.40;91.50
45409;DHT22;31162;51.076;3.784;2023-03-01T13:49:47;8.50;92.10
45409;DHT22;31162;51.076;3.784;2023-03-01T13:52:39;8.60;92.60
45409;DHT22;31162;51.076;3.784;2023-03-01T13:55:16;8.60;92.20
45409;DHT22;31162;51.076;3.784;2023-03-01T13:57:46;8.60;92.20
45409;DHT22;31162;51.076;3.784;2023-03-01T14:05:35;8.50;92.50
45409;DHT22;31162;51.076;3.784;2023-03-01T14:08:04;8.30;93.20
45409;DHT22;31162;51.076;3.784;2023-03-01T14:10:37;8.30;93.50
45409;DHT22;31162;51.076;3.784;2023-03-01T14:19:24;8.20;94.10
45409;DHT22;31162;51.076;3.784;2023-03-01T14:24:51;8.10;93.70
45409;DHT22;31162;51.076;3.784;2023-03-01T14:27:17;8.10;94.50
45409;DHT22;31162;51.076;3.784;2023-03-01T14:29:45;8.10;93.50
45409;DHT22;31162;51.076;3.784;2023-03-01T14:32:21;8.10;93.60
45409;DHT22;31162;51.076;3.784;2023-03-01T14:34:49;8.10;93.50
45409;DHT22;31162;51.076;3.784;2023-03-01T14:39:50;8.10;93.50
45409;DHT22;31162;51.076;3.784;2023-03-01T14:42:16;8.20;94.00
45409;DHT22;31162;51.076;3.784;2023-03-01T14:44:46;8.20;94.30
45409;DHT22;31162;51.076;3.784;2023-03-01T14:47:31;8.10;94.00
45409;DHT22;31162;51.076;3.784;2023-03-01T14:50:07;8.10;94.30
45409;DHT22;31162;51.076;3.784;2023-03-01T14:52:37;8.20;94.30
45409;DHT22;31162;51.076;3.784;2023-03-01T14:55:29;8.20;94.70
45409;DHT22;31162;51.076;3.784;2023-03-01T14:57:55;8.30;94.50
45409;DHT22;31162;51.076;3.784;2023-03-01T15:00:27;8.30;94.40
45409;DHT22;31162;51.076;3.784;2023-03-01T15:02:56;8.20;93.80
45409;DHT22;31162;51.076;3.784;2023-03-01T15:05:30;8.10;94.60
45409;DHT22;31162;51.076;3.784;2023-03-01T15:08:01;8.10;94.50
45409;DHT22;31162;51.076;3.784;2023-03-01T15:10:28;8.10;93.90
45409;DHT22;31162;51.076;3.784;2023-03-01T15:12:55;8.00;94.00
45409;DHT22;31162;51.076;3.784;2023-03-01T15:15:36;8.00;93.80
45409;DHT22;31162;51.076;3.784;2023-03-01T15:20:43;8.00;93.80
45409;DHT22;31162;51.076;3.784;2023-03-01T15:25:46;7.90;94.20
45409;DHT22;31162;51.076;3.784;2023-03-01T15:28:19;7.80;94.10
45409;DHT22;31162;51.076;3.784;2023-03-01T15:30:46;7.80;94.40
45409;DHT22;31162;51.076;3.784;2023-03-01T15:33:30;7.80;94.30
45409;DHT22;31162;51.076;3.784;2023-03-01T15:36:01;7.80;94.30
45409;DHT22;31162;51.076;3.784;2023-03-01T15:38:32;7.80;94.80
45409;DHT22;31162;51.076;3.784;2023-03-01T15:41:00;7.90;94.70
45409;DHT22;31162;51.076;3.784;2023-03-01T15:43:46;8.00;94.60
45409;DHT22;31162;51.076;3.784;2023-03-01T15:46:24;7.90;94.70
45409;DHT22;31162;51.076;3.784;2023-03-01T15:48:57;7.90;95.00
45409;DHT22;31162;51.076;3.784;2023-03-01T15:51:27;7.80;95.10
45409;DHT22;31162;51.076;3.784;2023-03-01T15:53:54;7.80;95.20
45409;DHT22;31162;51.076;3.784;2023-03-01T15:56:20;7.90;95.20
45409;DHT22;31162;51.076;3.784;2023-03-01T15:58:45;7.70;95.40
45409;DHT22;31162;51.076;3.784;2023-03-01T16:01:13;7.70;95.40
45409;DHT22;31162;51.076;3.784;2023-03-01T16:03:40;7.70;95.50
45409;DHT22;31162;51.076;3.784;2023-03-01T16:06:05;7.70;95.60
45409;DHT22;31162;51.076;3.784;2023-03-01T16:08:31;7.70;95.40
45409;DHT22;31162;51.076;3.784;2023-03-01T16:10:57;7.70;95.60
45409;DHT22;31162;51.076;3.784;2023-03-01T16:13:23;7.70;95.80
45409;DHT22;31162;51.076;3.784;2023-03-01T16:15:50;7.80;95.70
45409;DHT22;31162;51.076;3.784;2023-03-01T16:18:16;7.80;95.30
45409;DHT22;31162;51.076;3.784;2023-03-01T16:20:42;7.70;95.50
45409;DHT22;31162;51.076;3.784;2023-03-01T16:23:10;7.60;95.70
45409;DHT22;31162;51.076;3.784;2023-03-01T16:25:36;7.60;95.60
45409;DHT22;31162;51.076;3.784;2023-03-01T16:28:03;7.50;95.70
45409;DHT22;31162;51.076;3.784;2023-03-01T16:30:34;7.50;95.70
45409;DHT22;31162;51.076;3.784;2023-03-01T16:33:01;7.50;95.90
45409;DHT22;31162;51.076;3.784;2023-03-01T16:35:27;7.50;96.00
45409;DHT22;31162;51.076;3.784;2023-03-01T16:37:52;7.40;95.80
45409;DHT22;31162;51.076;3.784;2023-03-01T16:40:28;7.40;95.70
45409;DHT22;31162;51.076;3.784;2023-03-01T16:42:55;7.40;95.60
45409;DHT22;31162;51.076;3.784;2023-03-01T16:45:25;7.40;95.80
45409;DHT22;31162;51.076;3.784;2023-03-01T16:47:51;7.30;95.80
45409;DHT22;31162;51.076;3.784;2023-03-01T16:50:17;7.20;95.90
45409;DHT22;31162;51.076;3.784;2023-03-01T16:52:43;7.10;96.20
45409;DHT22;31162;51.076;3.784;2023-03-01T16:55:09;7.10;96.00
45409;DHT22;31162;51.076;3.784;2023-03-01T16:57:38;7.10;96.40
45409;DHT22;31162;51.076;3.784;2023-03-01T17:00:08;7.00;96.40
45409;DHT22;31162;51.076;3.784;2023-03-01T17:02:38;7.00;96.60
45409;DHT22;31162;51.076;3.784;2023-03-01T17:05:04;7.00;96.40
45409;DHT22;31162;51.076;3.784;2023-03-01T17:07:32;7.00;96.50
45409;DHT22;31162;51.076;3.784;2023-03-01T17:10:03;6.90;96.50
45409;DHT22;31162;51.076;3.784;2023-03-01T17:12:29;6.90;96.10
45409;DHT22;31162;51.076;3.784;2023-03-01T17:14:54;6.70;96.20
45409;DHT22;31162;51.076;3.784;2023-03-01T17:17:20;6.70;96.20
45409;DHT22;31162;51.076;3.784;2023-03-01T17:19:46;6.60;96.10
45409;DHT22;31162;51.076;3.784;2023-03-01T17:22:12;6.60;96.20
45409;DHT22;31162;51.076;3.784;2023-03-01T17:24:39;6.50;96.30
45409;DHT22;31162;51.076;3.784;2023-03-01T17:27:06;6.50;96.60
45409;DHT22;31162;51.076;3.784;2023-03-01T17:29:32;6.40;96.70
45409;DHT22;31162;51.076;3.784;2023-03-01T17:31:58;6.40;96.90
45409;DHT22;31162;51.076;3.784;2023-03-01T17:34:24;6.30;97.10
45409;DHT22;31162;51.076;3.784;2023-03-01T17:36:50;6.20;97.30
45409;DHT22;31162;51.076;3.784;2023-03-01T17:39:17;6.30;97.40
45409;DHT22;31162;51.076;3.784;2023-03-01T17:41:46;6.30;97.50
45409;DHT22;31162;51.076;3.784;2023-03-01T17:44:11;6.20;97.70
45409;DHT22;31162;51.076;3.784;2023-03-01T17:46:37;6.20;97.90
45409;DHT22;31162;51.076;3.784;2023-03-01T17:49:03;6.00;98.20
45409;DHT22;31162;51.076;3.784;2023-03-01T17:51:28;5.80;98.70
45409;DHT22;31162;51.076;3.784;2023-03-01T17:53:54;5.80;98.90
45409;DHT22;31162;51.076;3.784;2023-03-01T17:56:20;5.90;98.90
45409;DHT22;31162;51.076;3.784;2023-03-01T17:58:45;5.90;98.90
45409;DHT22;31162;51.076;3.784;2023-03-01T18:01:18;5.90;99.00
45409;DHT22;31162;51.076;3.784;2023-03-01T18:03:44;5.80;99.20
45409;DHT22;31162;51.076;3.784;2023-03-01T18:06:21;5.80;99.40
45409;DHT22;31162;51.076;3.784;2023-03-01T18:08:47;5.70;99.50
45409;DHT22;31162;51.076;3.784;2023-03-01T18:11:15;5.70;99.80
45409;DHT22;31162;51.076;3.784;2023-03-01T18:13:41;5.60;99.90
45409;DHT22;31162;51.076;3.784;2023-03-01T18:16:13;5.60;99.90
45409;DHT22;31162;51.076;3.784;2023-03-01T18:18:39;5.60;99.90